createdAt,value
2023-04-07T00:04:30.314Z,3.32
2023-04-07T00:16:30.618Z,3.43
2023-04-07T00:28:31.088Z,3.72
2023-04-07T00:40:31.490Z,4.57
2023-04-07T00:52:34.304Z,4.00
2023-04-07T01:04:32.566Z,4.34
2023-04-07T01:16:32.913Z,4.75
2023-04-07T01:28:33.280Z,5.75
2023-04-07T01:40:35.515Z,5.06
2023-04-07T01:52:34.221Z,4.80
2023-04-07T02:04:34.684Z,5.04
2023-04-07T02:16:35.148Z,4.53
2023-04-07T02:28:35.562Z,4.53
2023-04-07T02:40:38.762Z,4.48
2023-04-07T02:52:36.590Z,4.24
2023-04-07T03:04:36.932Z,4.03
2023-04-07T03:16:37.375Z,3.81
2023-04-07T03:28:37.854Z,3.66
2023-04-07T03:40:38.298Z,3.45
2023-04-07T03:52:38.724Z,3.40
2023-04-07T04:04:39.244Z,3.22
2023-04-07T04:16:39.627Z,3.17
2023-04-07T04:28:40.112Z,3.33
2023-04-07T04:40:40.547Z,3.20
2023-04-07T04:52:40.992Z,3.30
2023-04-07T05:04:41.519Z,3.32
2023-04-07T05:16:41.985Z,3.65
2023-04-07T05:28:42.327Z,4.06
2023-04-07T05:40:42.824Z,3.90
2023-04-07T05:52:43.241Z,3.55
2023-04-07T06:04:43.724Z,4.01
2023-04-07T06:16:44.226Z,4.53
2023-04-07T06:28:44.603Z,4.92
2023-04-07T06:40:45.054Z,5.20
2023-04-07T06:52:45.576Z,5.73
2023-04-07T07:04:45.960Z,6.03
2023-04-07T07:16:46.416Z,6.39
2023-04-07T07:28:46.854Z,7.03
2023-04-07T07:40:47.379Z,8.36
2023-04-07T07:52:47.774Z,7.63
2023-04-07T08:04:48.225Z,7.90
2023-04-07T08:16:48.685Z,8.14
2023-04-07T08:28:49.124Z,8.92
2023-04-07T08:40:49.555Z,9.06
2023-04-07T08:52:50.018Z,10.24
2023-04-07T09:04:50.496Z,9.90
2023-04-07T09:16:51.173Z,9.50
2023-04-07T09:28:51.406Z,10.00
2023-04-07T09:40:51.813Z,10.20
2023-04-07T09:52:52.336Z,10.11
2023-04-07T10:04:52.775Z,9.04
2023-04-07T10:16:53.236Z,9.67
2023-04-07T10:28:53.640Z,9.56
2023-04-07T10:40:54.126Z,9.20
2023-04-07T10:52:54.575Z,9.69
2023-04-07T11:04:55.114Z,9.90
2023-04-07T11:16:55.489Z,9.93
2023-04-07T11:28:55.932Z,10.29
2023-04-07T11:40:56.427Z,9.58
2023-04-07T11:52:56.838Z,9.64
2023-04-07T12:04:57.369Z,10.66
2023-04-07T12:17:00.058Z,10.23
2023-04-07T12:28:58.225Z,9.92
2023-04-07T12:40:58.641Z,9.57
2023-04-07T12:52:59.135Z,9.74
2023-04-07T13:04:59.536Z,10.57
2023-04-07T13:17:00.039Z,10.06
2023-04-07T13:29:00.450Z,9.08
2023-04-07T13:41:00.904Z,10.78
2023-04-07T13:53:01.368Z,10.64
2023-04-07T14:05:01.924Z,9.74
2023-04-07T14:17:02.265Z,9.75
2023-04-07T14:29:02.735Z,9.65
2023-04-07T14:53:03.660Z,9.15
2023-04-07T15:05:04.061Z,8.88
2023-04-07T15:17:04.531Z,8.51
2023-04-07T15:29:05.016Z,8.21
2023-04-07T15:41:05.446Z,7.63
2023-04-07T15:53:05.884Z,7.60
2023-04-07T16:05:06.382Z,7.46
2023-04-07T16:17:06.800Z,7.24
2023-04-07T16:29:07.279Z,6.74
2023-04-07T16:41:07.978Z,6.71
2023-04-07T16:53:08.157Z,6.55
2023-04-07T17:05:08.641Z,6.44
2023-04-07T17:17:09.102Z,6.54
2023-04-07T17:29:09.521Z,6.58
2023-04-07T17:41:09.966Z,6.25
2023-04-07T17:53:10.404Z,6.33
2023-04-07T18:05:10.943Z,5.94
2023-04-07T18:17:11.340Z,5.95
2023-04-07T18:29:14.505Z,5.44
2023-04-07T18:41:12.237Z,6.04
2023-04-07T18:53:12.693Z,5.90
2023-04-07T19:05:13.150Z,5.29
2023-04-07T19:17:13.591Z,5.25
2023-04-07T19:29:14.038Z,5.79
2023-04-07T19:41:16.249Z,5.26
2023-04-07T19:53:14.975Z,5.16
2023-04-07T20:05:18.085Z,5.42
2023-04-07T20:17:15.848Z,5.20
2023-04-07T20:29:16.335Z,5.54
2023-04-07T20:41:16.766Z,5.08
2023-04-07T20:53:17.239Z,5.17
2023-04-07T21:05:17.674Z,5.05
2023-04-07T21:17:18.151Z,5.22
2023-04-07T21:29:18.566Z,5.25
2023-04-07T21:41:19.046Z,5.15
2023-04-07T21:53:19.480Z,5.15
2023-04-07T22:05:19.943Z,4.88
2023-04-07T22:17:20.388Z,4.67
2023-04-07T22:29:20.848Z,4.75
2023-04-07T22:41:21.290Z,4.83
2023-04-07T22:53:21.749Z,4.94
2023-04-07T23:05:22.173Z,4.62
2023-04-07T23:17:24.928Z,4.45
2023-04-07T23:29:23.093Z,4.81
2023-04-07T23:41:23.589Z,4.10
2023-04-07T23:53:23.996Z,4.18
